MPDA/DAV METAR and TAF weather

Enter ICAO airport designator
Station Type Date Time Source
MPDA METAR 2019/04/19 00:00 UTC NOAA

MPDA 190000Z 33005KT 9999 SCT020 BKN080 26/23 Q1008


Station Type Date Time Source
MPDA Decoded METAR 2019/04/19 00:00 UTC NOAA

David, Panama (MPDA) 08-24N 082-25W 26M
Apr 18, 2019 - 08:00 PM EDT / 2019.04.19 0000 UTC
Wind: from the NNW (330 degrees) at 6 MPH (5 KT):0
Visibility: greater than 7 mile(s):0
Sky conditions: mostly cloudy
Temperature: 78 F (26 C)
Dew Point: 73 F (23 C)
Relative Humidity: 83%
Pressure (altimeter): 29.77 in. Hg (1008 hPa)
ob: MPDA 190000Z 33005KT 9999 SCT020 BKN080 26/23 Q1008
cycle: 0

Station Type Date Time Source
MPDA TAF 2019/04/19 00:54 UTC NOAA

TAF
AMD TAF
AMD MPDA 190300Z 1900/1912 CNL

Example: see airport list